Time;durP1;ratioP1;P1;durP2;ratioP2;P2;SDS_P1;SDS_P2;PMS_P1;PMS_P2;Temp;Humidity;BMP_temperature;BMP_pressure;BME280_temperature;BME280_humidity;BME280_pressure;Samples;Min_cycle;Max_cycle;Signal;HPM_P1;HPM_P2
2021/09/07 00:01:09;;;;;;;12.37;4.58;;;;;;;14.21;55.86;101289.88;1726014;83;21555;-77
2021/09/07 00:03:35;;;;;;;8.25;4.62;;;;;;;14.17;55.99;101284.53;1713133;83;21033;-77
2021/09/07 00:06:01;;;;;;;9.63;4.87;;;;;;;14.14;56.13;101282.19;1725902;83;21235;-77
2021/09/07 00:08:27;;;;;;;10.60;5.15;;;;;;;14.11;56.24;101282.50;1713285;83;21046;-77
2021/09/07 00:10:53;;;;;;;7.15;4.75;;;;;;;14.11;56.31;101285.19;1725913;83;21033;-77
2021/09/07 00:13:19;;;;;;;13.58;5.05;;;;;;;14.09;56.41;101287.22;1713125;83;21081;-77
2021/09/07 00:15:45;;;;;;;8.93;4.35;;;;;;;14.08;56.50;101293.58;1725746;83;21640;-77
2021/09/07 00:18:11;;;;;;;9.25;4.33;;;;;;;14.07;56.52;101289.25;1713183;83;21902;-77
2021/09/07 00:20:37;;;;;;;9.53;4.92;;;;;;;14.02;56.64;101288.91;1724921;83;21029;-77
2021/09/07 00:23:03;;;;;;;7.50;4.45;;;;;;;14.02;56.64;101288.91;1713276;83;21073;-77
2021/09/07 00:25:29;;;;;;;11.73;5.10;;;;;;;13.97;56.88;101292.59;1724893;82;21044;-77
2021/09/07 00:27:55;;;;;;;11.88;5.45;;;;;;;13.95;57.00;101283.89;1712490;83;21064;-77
2021/09/07 00:30:21;;;;;;;9.88;5.15;;;;;;;13.93;57.17;101279.21;1725484;83;22101;-77
2021/09/07 00:32:47;;;;;;;17.40;6.33;;;;;;;13.89;57.32;101276.53;1713096;83;20882;-77
2021/09/07 00:35:13;;;;;;;11.40;4.80;;;;;;;13.86;57.46;101275.53;1734342;81;20993;-77
2021/09/07 00:37:40;;;;;;;8.78;5.05;;;;;;;13.82;57.66;101269.67;1755983;81;21529;-77
2021/09/07 00:40:08;;;;;;;10.23;5.17;;;;;;;13.81;57.87;101267.15;1742992;82;21037;-77
2021/09/07 00:42:36;;;;;;;9.05;5.58;;;;;;;13.75;58.07;101265.16;1755897;81;21041;-77
2021/09/07 00:45:04;;;;;;;14.55;5.97;;;;;;;13.65;58.28;101265.84;1742657;82;21236;-77
2021/09/07 00:47:31;;;;;;;14.75;8.03;;;;;;;13.57;58.55;101261.81;1755486;81;21469;-77
2021/09/07 00:49:57;;;;;;;12.15;7.97;;;;;;;13.53;58.80;101256.45;1725020;83;21045;-77
2021/09/07 00:52:24;;;;;;;13.03;8.23;;;;;;;13.51;59.03;101261.46;1742212;82;21053;-77
2021/09/07 00:54:50;;;;;;;10.23;7.33;;;;;;;13.51;59.23;101266.83;1755189;81;21136;-77
2021/09/07 00:57:16;;;;;;;13.40;7.75;;;;;;;13.51;59.35;101265.48;1742858;82;21494;-77
2021/09/07 00:59:43;;;;;;;14.38;8.23;;;;;;;13.50;59.52;101254.45;1755295;81;21037;-77
2021/09/07 01:02:09;;;;;;;17.10;8.95;;;;;;;13.49;59.70;101255.45;1700418;83;21537;-77
2021/09/07 01:04:35;;;;;;;12.37;8.13;;;;;;;13.49;59.87;101251.92;1742758;82;21029;-77
2021/09/07 01:07:03;;;;;;;14.83;8.98;;;;;;;13.46;60.05;101254.45;1755302;81;21122;-77
2021/09/07 01:09:29;;;;;;;13.50;9.18;;;;;;;13.43;60.24;101253.45;1742811;82;21425;-77
2021/09/07 01:11:55;;;;;;;14.07;8.88;;;;;;;13.44;60.43;101258.31;1755071;80;21556;-77
2021/09/07 01:14:32;;;;;;;13.30;8.43;;;;;;;13.40;60.61;101253.78;1742531;81;21002;-77
2021/09/07 01:16:58;;;;;;;12.45;8.05;;;;;;;13.37;60.79;101251.41;1728535;82;21033;-77
2021/09/07 01:19:29;;;;;;;12.90;8.40;;;;;;;13.36;60.97;101253.78;1755476;81;21879;-77
2021/09/07 01:21:55;;;;;;;13.60;8.50;;;;;;;13.35;61.12;101250.76;1741812;82;21088;-77
2021/09/07 01:24:22;;;;;;;11.22;7.05;;;;;;;13.32;61.26;101248.41;1728654;82;21062;-77
2021/09/07 01:26:49;;;;;;;12.93;7.08;;;;;;;13.26;61.45;101250.43;1755393;81;21577;-77
2021/09/07 01:29:15;;;;;;;12.03;7.58;;;;;;;13.19;61.63;101245.41;1742506;82;21025;-77
2021/09/07 01:31:41;;;;;;;13.15;7.83;;;;;;;13.17;61.80;101239.85;1755422;81;21142;-77
2021/09/07 01:34:07;;;;;;;19.17;10.43;;;;;;;13.12;61.95;101236.36;1742091;82;21060;-77
2021/09/07 01:36:33;;;;;;;19.32;11.28;;;;;;;13.08;62.13;101229.62;1704276;82;21061;-77
2021/09/07 01:38:59;;;;;;;24.12;13.08;;;;;;;13.07;62.33;101230.61;1713394;83;21008;-77
2021/09/07 01:41:25;;;;;;;23.73;13.25;;;;;;;13.07;62.52;101233.78;1712594;83;21580;-77
2021/09/07 01:43:51;;;;;;;20.68;11.43;;;;;;;13.04;62.68;101233.63;1712346;83;21766;-77
2021/09/07 01:46:18;;;;;;;16.52;8.85;;;;;;;12.98;62.83;101228.41;1712030;83;21045;-77
2021/09/07 01:48:44;;;;;;;31.35;13.98;;;;;;;12.94;63.01;101223.58;1712350;83;21041;-76
2021/09/07 01:51:10;;;;;;;31.68;15.55;;;;;;;12.92;63.22;101225.56;1686614;83;21125;-76
2021/09/07 01:53:36;;;;;;;20.15;11.35;;;;;;;12.92;63.37;101230.91;1712924;83;21049;-77
2021/09/07 01:56:03;;;;;;;17.48;9.65;;;;;;;12.89;63.54;101227.23;1712498;83;21918;-77
2021/09/07 01:58:29;;;;;;;19.32;10.15;;;;;;;12.89;63.70;101223.22;1712910;83;21030;-77
2021/09/07 02:00:55;;;;;;;18.37;10.13;;;;;;;12.90;63.80;101219.55;1712612;83;21002;-77
2021/09/07 02:03:21;;;;;;;16.70;9.05;;;;;;;12.90;63.88;101224.90;1712808;83;21033;-77
2021/09/07 02:05:47;;;;;;;17.95;8.88;;;;;;;12.89;64.02;101230.75;1683334;85;21057;-77
2021/09/07 02:08:13;;;;;;;15.55;8.68;;;;;;;12.87;64.12;101235.94;1712745;83;21338;-77
2021/09/07 02:10:39;;;;;;;15.05;8.43;;;;;;;12.83;64.24;101235.44;1713004;82;21022;-77
2021/09/07 02:13:05;;;;;;;15.98;8.68;;;;;;;12.79;64.38;101230.56;1712825;83;21001;-77
2021/09/07 02:15:31;;;;;;;12.15;8.15;;;;;;;12.75;64.50;101233.22;1712919;83;20914;-78
2021/09/07 02:17:57;;;;;;;17.87;9.13;;;;;;;12.74;64.63;101232.88;1683277;84;21014;-77
2021/09/07 02:20:23;;;;;;;14.33;7.75;;;;;;;12.73;64.73;101231.23;1653778;86;21595;-77
2021/09/07 02:22:49;;;;;;;12.45;7.10;;;;;;;12.68;64.82;101234.38;1654188;86;20990;-77
2021/09/07 02:25:15;;;;;;;11.70;6.92;;;;;;;12.65;64.92;101229.86;1654196;86;21660;-77
2021/09/07 02:27:41;;;;;;;15.25;7.50;;;;;;;12.65;64.98;101237.88;1654462;86;20910;-77
2021/09/07 02:30:08;;;;;;;13.62;7.37;;;;;;;12.64;65.09;101229.51;1653777;86;21116;-77
2021/09/07 02:32:34;;;;;;;13.35;7.15;;;;;;;12.65;65.16;101233.37;1654242;86;22035;-77
2021/09/07 02:35:00;;;;;;;12.75;7.12;;;;;;;12.65;65.25;101239.22;1658653;85;21038;-77
2021/09/07 02:37:26;;;;;;;15.63;7.72;;;;;;;12.65;65.34;101236.55;1710430;83;21140;-77
2021/09/07 02:39:52;;;;;;;13.22;7.37;;;;;;;12.61;65.42;101236.53;1740845;82;21033;-77
2021/09/07 02:42:18;;;;;;;13.68;6.78;;;;;;;12.60;65.52;101246.39;1740674;82;21097;-77
2021/09/07 02:44:44;;;;;;;16.00;7.75;;;;;;;12.58;65.58;101243.55;1740846;82;21186;-77
2021/09/07 02:47:10;;;;;;;15.78;7.92;;;;;;;12.60;65.68;101244.20;1727486;82;21557;-77
2021/09/07 02:49:36;;;;;;;10.85;7.53;;;;;;;12.59;65.76;101245.23;1686302;84;21006;-77
2021/09/07 02:52:02;;;;;;;11.83;7.12;;;;;;;12.59;65.85;101238.55;1738228;82;20968;-77
2021/09/07 02:54:28;;;;;;;19.50;9.43;;;;;;;12.59;65.94;101238.55;1738540;82;21014;-77
2021/09/07 02:56:54;;;;;;;16.50;9.18;;;;;;;12.59;65.99;101238.55;1738426;82;21181;-77
2021/09/07 02:59:21;;;;;;;12.45;7.85;;;;;;;12.57;66.11;101248.55;1738462;82;21049;-77
2021/09/07 03:01:47;;;;;;;19.15;10.48;;;;;;;12.57;66.20;101238.69;1737614;82;21014;-76
2021/09/07 03:04:13;;;;;;;15.72;8.20;;;;;;;12.57;66.30;101232.50;1738552;82;21010;-77
2021/09/07 03:06:39;;;;;;;14.47;8.53;;;;;;;12.53;66.41;101224.80;1738464;82;21003;-77
2021/09/07 03:09:05;;;;;;;18.15;9.60;;;;;;;12.56;66.54;101234.86;1738528;81;21118;-77
2021/09/07 03:11:31;;;;;;;24.12;11.90;;;;;;;12.55;66.61;101234.51;1738497;82;21125;-77
2021/09/07 03:13:58;;;;;;;19.95;12.18;;;;;;;12.55;66.73;101231.84;1738484;81;21444;-77
2021/09/07 03:16:24;;;;;;;22.70;11.53;;;;;;;12.52;66.82;101228.47;1738605;81;21454;-77
2021/09/07 03:18:51;;;;;;;19.60;9.65;;;;;;;12.53;66.92;101231.98;1738454;82;20986;-77
2021/09/07 03:21:17;;;;;;;16.57;9.53;;;;;;;12.49;67.00;101228.79;1738629;82;21116;-77
2021/09/07 03:23:43;;;;;;;15.53;9.33;;;;;;;12.44;67.10;101228.45;1738540;82;20987;-76
2021/09/07 03:26:10;;;;;;;17.75;9.28;;;;;;;12.39;67.23;101230.77;1738527;82;21459;-77
2021/09/07 03:28:36;;;;;;;18.05;9.18;;;;;;;12.35;67.35;101230.74;1738599;81;21046;-77
2021/09/07 03:31:02;;;;;;;16.80;9.35;;;;;;;12.34;67.47;101230.42;1738236;82;21546;-77
2021/09/07 03:33:28;;;;;;;28.83;14.40;;;;;;;12.33;67.56;101235.43;1738598;82;21826;-77
2021/09/07 03:35:54;;;;;;;21.97;12.73;;;;;;;12.30;67.66;101239.77;1738417;82;20963;-77
2021/09/07 03:38:20;;;;;;;18.40;9.58;;;;;;;12.28;67.79;101240.94;1738459;82;21042;-77
2021/09/07 03:40:46;;;;;;;15.60;9.60;;;;;;;12.25;67.90;101240.73;1738358;82;21046;-77
2021/09/07 03:43:12;;;;;;;16.82;9.58;;;;;;;12.23;68.01;101241.91;1738448;82;20898;-76
2021/09/07 03:45:40;;;;;;;15.45;8.83;;;;;;;12.21;68.14;101236.70;1738182;81;21156;-78
2021/09/07 03:48:06;;;;;;;16.55;8.70;;;;;;;12.18;68.27;101246.38;1737892;82;21013;-77
2021/09/07 03:50:32;;;;;;;17.42;9.70;;;;;;;12.19;68.38;101242.72;1733434;82;21006;-77
2021/09/07 03:52:58;;;;;;;25.43;12.05;;;;;;;12.20;68.51;101244.41;1729406;82;21037;-77
2021/09/07 03:55:24;;;;;;;20.45;9.65;;;;;;;12.19;68.61;101240.05;1729542;82;21014;-77
2021/09/07 03:57:50;;;;;;;20.72;9.48;;;;;;;12.18;68.72;101239.70;1729420;83;21132;-77
2021/09/07 04:00:17;;;;;;;22.80;8.80;;;;;;;12.16;68.81;101240.37;1729654;82;20973;-77
2021/09/07 04:02:43;;;;;;;20.23;8.45;;;;;;;12.14;68.92;101230.31;1729658;82;20979;-77
2021/09/07 04:05:09;;;;;;;26.60;10.70;;;;;;;12.08;69.05;101226.95;1729694;83;21423;-77
2021/09/07 04:07:35;;;;;;;21.42;10.35;;;;;;;12.02;69.14;101232.94;1729688;81;21509;-77
2021/09/07 04:10:01;;;;;;;20.80;9.58;;;;;;;11.97;69.28;101225.39;1729685;82;21614;-77
2021/09/07 04:12:27;;;;;;;16.65;9.60;;;;;;;11.92;69.40;101222.86;1729539;82;20923;-77
2021/09/07 04:14:53;;;;;;;21.35;9.20;;;;;;;11.89;69.52;101228.53;1729525;82;20985;-77
2021/09/07 04:17:19;;;;;;;20.15;8.95;;;;;;;11.90;69.63;101228.84;1729779;83;21006;-77
2021/09/07 04:19:46;;;;;;;20.90;9.25;;;;;;;11.92;69.72;101233.55;1729681;83;21058;-77
2021/09/07 04:22:11;;;;;;;27.10;11.35;;;;;;;11.94;69.78;101235.55;1730117;82;22168;-77
2021/09/07 04:24:38;;;;;;;18.75;8.98;;;;;;;11.92;69.85;101237.56;1729698;82;20978;-77
2021/09/07 04:27:04;;;;;;;20.62;8.88;;;;;;;11.89;69.92;101241.89;1729713;83;21022;-77
2021/09/07 04:29:30;;;;;;;16.48;9.73;;;;;;;11.90;69.98;101231.52;1729864;82;20970;-77
2021/09/07 04:31:56;;;;;;;19.92;8.80;;;;;;;11.94;70.04;101231.55;1729462;82;20997;-77
2021/09/07 04:34:22;;;;;;;16.30;8.48;;;;;;;11.96;70.08;101228.23;1729631;82;21132;-77
2021/09/07 04:36:48;;;;;;;16.17;8.10;;;;;;;11.92;70.12;101234.89;1729636;82;20994;-77
2021/09/07 04:39:14;;;;;;;15.98;8.75;;;;;;;11.91;70.21;101242.56;1729764;82;20998;-77
2021/09/07 04:41:40;;;;;;;27.02;9.03;;;;;;;11.89;70.26;101240.55;1729809;81;21498;-77
2021/09/07 04:44:06;;;;;;;17.60;9.18;;;;;;;11.86;70.35;101246.19;1729345;83;21022;-77
2021/09/07 04:46:32;;;;;;;19.48;9.23;;;;;;;11.85;70.42;101244.53;1729569;81;21123;-77
2021/09/07 04:48:58;;;;;;;21.33;9.25;;;;;;;11.85;70.49;101252.55;1729599;82;21006;-77
2021/09/07 04:51:24;;;;;;;17.52;8.60;;;;;;;11.88;70.52;101249.56;1736224;82;21058;-77
2021/09/07 04:53:50;;;;;;;41.98;12.28;;;;;;;11.90;70.58;101244.88;1738502;82;21054;-77
2021/09/07 04:56:18;;;;;;;27.80;11.30;;;;;;;11.88;70.65;101241.05;1738854;82;21442;-77
2021/09/07 04:58:45;;;;;;;18.35;10.60;;;;;;;11.89;70.70;101240.55;1738466;82;21152;-77
2021/09/07 05:01:11;;;;;;;27.17;10.88;;;;;;;11.92;70.76;101248.25;1738444;82;21037;-77
2021/09/07 05:03:37;;;;;;;22.80;10.80;;;;;;;11.98;70.83;101251.63;1739122;80;21017;-77
2021/09/07 05:06:03;;;;;;;25.08;8.23;;;;;;;12.09;70.87;101246.50;1733828;81;21469;-77
2021/09/07 05:08:30;;;;;;;20.30;8.95;;;;;;;12.16;70.88;101244.38;1734395;81;20954;-77
2021/09/07 05:10:55;;;;;;;21.23;9.70;;;;;;;12.24;70.92;101245.77;1747900;80;21158;-77
2021/09/07 05:13:21;;;;;;;39.18;9.23;;;;;;;12.37;70.95;101252.00;1717037;82;20986;-77
2021/09/07 05:15:47;;;;;;;18.62;7.70;;;;;;;12.50;70.97;101253.72;1732994;82;21061;-77
2021/09/07 05:18:13;;;;;;;21.12;8.70;;;;;;;12.63;70.99;101251.94;1735295;82;21033;-77
2021/09/07 05:20:39;;;;;;;23.75;8.50;;;;;;;12.75;70.96;101254.64;1735114;82;21006;-77
2021/09/07 05:23:05;;;;;;;21.80;8.45;;;;;;;12.87;70.95;101246.65;1725804;81;21058;-77
2021/09/07 05:25:32;;;;;;;20.48;8.68;;;;;;;12.99;70.91;101248.00;1722926;82;21078;-77
2021/09/07 05:27:58;;;;;;;36.98;9.00;;;;;;;13.11;70.87;101256.09;1722840;82;21011;-77
2021/09/07 05:30:23;;;;;;;14.90;8.10;;;;;;;13.24;70.83;101264.97;1718188;81;21140;-77
2021/09/07 05:32:50;;;;;;;22.22;8.88;;;;;;;13.32;70.80;101261.81;1723099;81;21010;-77
2021/09/07 05:35:16;;;;;;;35.48;15.00;;;;;;;13.41;70.76;101270.17;1723721;82;21141;-77
2021/09/07 05:37:42;;;;;;;33.83;16.55;;;;;;;13.53;70.74;101264.48;1718355;82;21054;-77
2021/09/07 05:40:12;;;;;;;41.23;16.20;;;;;;;13.62;70.68;101264.80;1722643;81;21520;-77
2021/09/07 05:42:42;;;;;;;35.15;11.28;;;;;;;13.69;70.63;101269.83;1725667;82;21050;-77
2021/09/07 05:45:08;;;;;;;19.17;8.80;;;;;;;13.75;70.57;101271.36;1723773;81;21083;-77
2021/09/07 05:47:34;;;;;;;27.95;10.82;;;;;;;13.83;70.52;101269.98;1722595;81;22084;-77
2021/09/07 05:50:01;;;;;;;28.67;10.50;;;;;;;13.92;70.43;101274.84;1724304;82;20995;-77
2021/09/07 05:52:27;;;;;;;32.30;10.98;;;;;;;14.01;70.33;101284.54;1719395;81;21033;-77
2021/09/07 05:54:53;;;;;;;22.20;9.65;;;;;;;14.08;70.24;101282.84;1730553;82;21084;-77
2021/09/07 05:57:19;;;;;;;23.40;9.55;;;;;;;14.12;70.15;101286.87;1736423;81;21009;-77
2021/09/07 05:59:45;;;;;;;23.50;9.18;;;;;;;14.14;70.09;101283.53;1716610;82;21173;-77
2021/09/07 06:02:11;;;;;;;16.70;9.90;;;;;;;14.16;70.09;101292.23;1712327;82;20874;-77
2021/09/07 06:04:37;;;;;;;22.70;10.98;;;;;;;14.24;70.05;101290.87;1729956;82;21500;-76
2021/09/07 06:07:03;;;;;;;23.92;10.23;;;;;;;14.31;69.97;101293.20;1733720;81;21460;-75
2021/09/07 06:09:29;;;;;;;25.85;10.90;;;;;;;14.41;69.86;101296.56;1741028;81;21047;-76
2021/09/07 06:11:55;;;;;;;18.02;9.98;;;;;;;14.49;69.78;101289.80;1718577;82;21173;-75
2021/09/07 06:14:21;;;;;;;22.73;9.70;;;;;;;14.60;69.70;101290.45;1740762;81;22652;-76
2021/09/07 06:16:47;;;;;;;16.90;8.80;;;;;;;14.73;69.61;101296.09;1749510;81;21035;-76
2021/09/07 06:19:13;;;;;;;19.25;8.00;;;;;;;14.88;69.53;101299.73;1709836;83;21079;-76
2021/09/07 06:21:39;;;;;;;12.47;7.90;;;;;;;15.16;69.47;101298.22;1728989;82;21002;-76
2021/09/07 06:24:05;;;;;;;13.20;7.40;;;;;;;15.16;69.47;101298.22;1746282;81;21122;-76
2021/09/07 06:26:32;;;;;;;15.40;8.98;;;;;;;15.24;69.23;101293.27;1713103;82;21087;-76
2021/09/07 06:28:58;;;;;;;25.37;10.98;;;;;;;15.29;69.15;101293.59;1745864;81;21106;-77
2021/09/07 06:31:24;;;;;;;24.30;13.78;;;;;;;15.28;69.09;101299.47;1725381;82;21075;-76
2021/09/07 06:33:50;;;;;;;29.15;14.13;;;;;;;15.32;68.87;101308.01;1736887;81;21524;-76
2021/09/07 06:36:16;;;;;;;31.87;16.35;;;;;;;15.39;68.92;101304.44;1747896;81;21103;-76
2021/09/07 06:38:42;;;;;;;22.82;13.60;;;;;;;15.51;68.87;101306.73;1747421;81;21051;-76
2021/09/07 06:41:10;;;;;;;24.00;14.10;;;;;;;15.58;68.72;101308.53;1738374;81;21004;-75
2021/09/07 06:43:36;;;;;;;24.50;14.63;;;;;;;15.63;68.65;101310.66;1744436;81;21638;-76
2021/09/07 06:46:02;;;;;;;25.17;15.10;;;;;;;15.63;68.60;101313.34;1744074;81;21036;-76
2021/09/07 06:48:28;;;;;;;25.17;16.45;;;;;;;15.68;68.52;101317.69;1745921;81;21090;-76
2021/09/07 06:50:54;;;;;;;20.15;14.00;;;;;;;15.73;68.47;101320.66;1746928;81;21005;-76
2021/09/07 06:53:20;;;;;;;30.62;18.02;;;;;;;15.77;68.34;101320.63;1751005;81;20904;-77
2021/09/07 06:55:46;;;;;;;26.10;16.60;;;;;;;15.79;68.19;101326.69;1748051;80;21103;-77
2021/09/07 06:58:12;;;;;;;24.12;17.02;;;;;;;15.82;68.08;101329.00;1752069;81;20978;-77
2021/09/07 07:00:38;;;;;;;28.90;16.52;;;;;;;15.83;67.95;101330.69;1744422;81;21062;-77
2021/09/07 07:03:04;;;;;;;24.15;14.90;;;;;;;15.85;67.83;101322.75;1745289;81;21072;-76
2021/09/07 07:05:30;;;;;;;23.60;14.80;;;;;;;15.86;67.65;101324.94;1739022;81;21589;-77
2021/09/07 07:07:56;;;;;;;27.98;15.25;;;;;;;15.91;67.58;101321.17;1740030;81;21588;-77
2021/09/07 07:10:22;;;;;;;25.60;13.98;;;;;;;15.96;67.46;101317.45;1741781;81;20994;-77
2021/09/07 07:12:48;;;;;;;22.67;12.45;;;;;;;15.99;67.35;101318.42;1723969;82;21045;-77
2021/09/07 07:15:14;;;;;;;23.02;12.45;;;;;;;15.99;67.21;101315.23;1723251;82;21010;-77
2021/09/07 07:17:40;;;;;;;19.02;13.58;;;;;;;16.01;67.13;101319.06;1729133;81;21092;-77
2021/09/07 07:20:07;;;;;;;23.57;13.80;;;;;;;16.04;67.01;101314.69;1722040;81;21105;-77
2021/09/07 07:22:34;;;;;;;26.02;12.90;;;;;;;16.06;66.91;101318.02;1720588;81;21068;-77
2021/09/07 07:25:00;;;;;;;18.27;11.22;;;;;;;16.12;66.75;101318.63;1741316;81;21040;-77
2021/09/07 07:27:26;;;;;;;22.35;11.97;;;;;;;16.19;66.63;101322.25;1741374;81;20987;-77
2021/09/07 07:29:52;;;;;;;21.42;11.03;;;;;;;16.23;66.55;101319.52;1737989;82;20909;-77
2021/09/07 07:32:18;;;;;;;22.95;11.18;;;;;;;16.23;66.40;101327.59;1737849;82;20991;-77
2021/09/07 07:34:44;;;;;;;23.22;10.58;;;;;;;16.26;66.22;101322.34;1738267;82;21094;-77
2021/09/07 07:37:10;;;;;;;17.10;10.30;;;;;;;16.31;66.09;101323.48;1741089;81;21105;-77
2021/09/07 07:39:36;;;;;;;18.73;10.48;;;;;;;16.42;65.97;101328.42;1746577;81;21491;-77
2021/09/07 07:42:02;;;;;;;19.77;9.95;;;;;;;16.53;65.87;101329.81;1737489;82;21479;-77
2021/09/07 07:44:28;;;;;;;17.85;9.90;;;;;;;16.61;65.79;101327.03;1740434;81;21033;-76
2021/09/07 07:46:55;;;;;;;15.00;10.45;;;;;;;16.68;65.69;101328.47;1747051;81;21010;-77
2021/09/07 07:49:21;;;;;;;17.15;9.65;;;;;;;16.75;65.61;101329.39;1737772;81;21126;-77
2021/09/07 07:51:47;;;;;;;17.70;9.68;;;;;;;16.84;65.52;101327.78;1745398;80;21010;-77
2021/09/07 07:54:13;;;;;;;16.02;9.70;;;;;;;16.98;65.40;101338.20;1728569;81;21073;-78
2021/09/07 07:56:39;;;;;;;19.57;10.58;;;;;;;17.11;65.22;101341.05;1723845;81;21039;-78
2021/09/07 07:59:05;;;;;;;17.10;9.88;;;;;;;17.22;65.07;101340.56;1744836;81;21062;-78
2021/09/07 08:01:32;;;;;;;22.32;12.88;;;;;;;17.33;64.90;101345.46;1748928;81;21555;-78
2021/09/07 08:03:58;;;;;;;14.55;9.25;;;;;;;17.46;64.70;101350.98;1755518;81;21053;-78
2021/09/07 08:06:24;;;;;;;17.87;9.13;;;;;;;17.55;64.55;101353.58;1755340;81;20988;-78
2021/09/07 08:08:50;;;;;;;12.68;7.72;;;;;;;17.63;64.34;101351.59;1744533;81;21028;-78
2021/09/07 08:11:17;;;;;;;18.37;8.55;;;;;;;17.71;64.07;101354.69;1744355;81;21085;-78
2021/09/07 08:13:43;;;;;;;16.45;8.88;;;;;;;17.84;63.83;101354.80;1710011;81;21783;-77
2021/09/07 08:16:09;;;;;;;11.93;8.03;;;;;;;17.96;63.54;101352.75;1741865;81;21004;-78
2021/09/07 08:18:35;;;;;;;14.98;8.65;;;;;;;18.07;63.24;101356.78;1716661;81;21027;-77
2021/09/07 08:21:01;;;;;;;16.85;9.53;;;;;;;18.15;62.99;101356.66;1760558;80;21060;-78
2021/09/07 08:23:27;;;;;;;15.15;8.10;;;;;;;18.19;62.69;101363.30;1747799;80;21079;-77
2021/09/07 08:25:53;;;;;;;18.00;9.63;;;;;;;18.22;62.38;101371.04;1740025;81;21121;-77
2021/09/07 08:28:19;;;;;;;17.92;10.88;;;;;;;18.27;62.14;101375.32;1731004;81;21008;-77
2021/09/07 08:30:46;;;;;;;18.12;9.28;;;;;;;18.32;61.91;101376.93;1739174;82;21565;-77
2021/09/07 08:33:13;;;;;;;16.27;7.87;;;;;;;18.34;61.71;101376.72;1741281;81;21507;-77
2021/09/07 08:35:40;;;;;;;18.55;8.25;;;;;;;18.40;61.49;101375.95;1741225;82;21118;-78
2021/09/07 08:38:06;;;;;;;16.77;8.05;;;;;;;18.41;61.16;101374.38;1751077;81;21070;-78
2021/09/07 08:40:32;;;;;;;15.13;8.58;;;;;;;18.45;60.94;101378.37;1755328;81;21351;-77
2021/09/07 08:42:58;;;;;;;13.58;8.25;;;;;;;18.57;60.74;101379.20;1755460;81;21044;-77
2021/09/07 08:45:24;;;;;;;17.87;9.00;;;;;;;18.64;60.47;101376.87;1720088;83;21581;-77
2021/09/07 08:47:50;;;;;;;13.70;8.78;;;;;;;18.72;60.19;101373.14;1753295;81;21657;-77
2021/09/07 08:50:16;;;;;;;16.20;8.20;;;;;;;18.80;59.94;101371.12;1753621;81;21103;-78
2021/09/07 08:52:42;;;;;;;11.40;8.10;;;;;;;18.81;59.67;101373.31;1745913;81;21067;-78
2021/09/07 08:55:09;;;;;;;14.63;8.85;;;;;;;18.72;59.47;101374.50;1728791;82;21081;-78
2021/09/07 08:57:35;;;;;;;16.45;8.20;;;;;;;18.69;59.43;101369.49;1721921;82;21903;-78
2021/09/07 09:00:05;;;;;;;16.73;8.80;;;;;;;18.86;59.24;101365.42;1726415;82;21112;-78
2021/09/07 09:02:33;;;;;;;17.10;8.95;;;;;;;19.02;58.99;101370.52;1725681;82;21483;-78
2021/09/07 09:04:59;;;;;;;17.90;8.50;;;;;;;19.19;58.74;101367.77;1678447;82;21037;-78
2021/09/07 09:07:28;;;;;;;13.55;8.65;;;;;;;19.36;58.48;101369.07;1725765;82;21006;-78
2021/09/07 09:09:56;;;;;;;13.15;8.95;;;;;;;19.51;58.21;101368.10;1726703;82;21062;-78
2021/09/07 09:12:39;;;;;;;14.45;9.53;;;;;;;19.50;57.87;101369.97;1727043;82;21056;-78
2021/09/07 09:15:17;;;;;;;12.75;7.85;;;;;;;19.56;57.58;101372.40;1715821;83;21832;-78
2021/09/07 09:17:43;;;;;;;16.02;8.50;;;;;;;19.62;57.42;101362.09;1727218;82;21068;-79
2021/09/07 09:20:18;;;;;;;13.00;8.35;;;;;;;19.78;57.31;101363.05;1728557;82;21022;-78
2021/09/07 09:22:53;;;;;;;13.65;8.05;;;;;;;20.09;57.08;101367.33;1727571;82;21081;-78
2021/09/07 09:25:23;;;;;;;12.05;7.85;;;;;;;20.36;56.76;101370.39;1717952;83;21738;-78
2021/09/07 09:28:11;;;;;;;19.92;9.08;;;;;;;20.62;56.40;101366.78;1729994;80;21358;-73
2021/09/07 09:30:47;;;;;;;13.80;7.95;;;;;;;20.79;55.95;101369.34;1736785;82;21034;-73
2021/09/07 09:33:25;;;;;;;15.98;8.73;;;;;;;20.85;55.60;101369.03;1736227;82;21581;-73
2021/09/07 09:36:00;;;;;;;17.67;8.05;;;;;;;20.97;55.20;101365.95;1721144;81;21099;-73
2021/09/07 09:38:34;;;;;;;15.45;8.50;;;;;;;20.98;54.92;101367.62;1746524;81;21066;-73
2021/09/07 09:41:03;;;;;;;16.50;8.53;;;;;;;20.91;54.63;101372.23;1768300;81;21544;-73
2021/09/07 09:43:33;;;;;;;16.50;8.10;;;;;;;20.88;54.38;101374.02;1730842;82;20993;-73
2021/09/07 09:46:19;;;;;;;;;;;;;;;20.75;54.13;101373.55;1727941;81;21005;-74
2021/09/07 09:48:44;;;;;;;16.02;7.83;;;;;;;20.78;53.77;101383.13;1758983;81;20229;-74
2021/09/07 09:51:10;;;;;;;32.13;9.43;;;;;;;20.75;53.58;101367.29;1742529;82;20906;-73
2021/09/07 09:53:36;;;;;;;25.60;8.70;;;;;;;20.82;53.36;101367.59;1741645;82;21144;-74
2021/09/07 09:56:03;;;;;;;13.45;8.45;;;;;;;20.83;53.15;101367.88;1722911;82;21486;-74
2021/09/07 09:58:29;;;;;;;17.12;9.45;;;;;;;20.91;52.93;101368.16;1755133;81;21010;-74
2021/09/07 10:00:55;;;;;;;17.80;9.43;;;;;;;21.00;52.73;101372.33;1706920;82;21813;-74
2021/09/07 10:03:22;;;;;;;20.08;9.45;;;;;;;21.00;52.54;101368.77;1734372;82;21026;-74
2021/09/07 10:05:48;;;;;;;14.68;9.30;;;;;;;20.92;52.33;101367.12;1734789;82;21055;-74
2021/09/07 10:08:15;;;;;;;14.53;8.00;;;;;;;20.86;52.31;101366.09;1734959;82;20907;-74
2021/09/07 10:10:50;;;;;;;13.35;8.80;;;;;;;20.82;52.17;101366.75;1735095;82;21419;-74
2021/09/07 10:13:17;;;;;;;18.65;8.00;;;;;;;20.86;52.19;101362.56;1726956;82;21478;-73
2021/09/07 10:15:53;;;;;;;22.05;8.98;;;;;;;20.92;52.12;101365.25;1734998;82;21526;-74
2021/09/07 10:18:57;;;;;;;15.63;9.23;;;;;;;20.90;52.08;101362.42;1733727;82;21910;-73
2021/09/07 10:26:18;;;;;;;14.18;8.63;;;;;;;20.60;52.24;101363.47;1735046;82;21420;-73
2021/09/07 10:28:45;;;;;;;17.30;7.42;;;;;;;20.55;52.30;101362.45;1735042;81;21014;-74
2021/09/07 10:31:15;;;;;;;17.35;6.78;;;;;;;20.57;52.30;101365.77;1735111;82;21769;-73
2021/09/07 10:34:02;;;;;;;15.38;7.03;;;;;;;20.57;52.25;101366.60;1734540;81;21505;-74
2021/09/07 10:36:31;;;;;;;13.62;6.12;;;;;;;20.57;52.29;101363.05;1735218;82;21046;-74
2021/09/07 10:38:58;;;;;;;12.95;7.47;;;;;;;20.78;52.40;101358.20;1735299;82;20998;-74
2021/09/07 10:41:39;;;;;;;11.75;7.70;;;;;;;20.92;52.28;101362.54;1735135;82;21587;-73
2021/09/07 10:44:31;;;;;;;18.65;6.92;;;;;;;20.98;52.15;101359.48;1735061;82;21246;-74
2021/09/07 10:47:17;;;;;;;13.10;6.80;;;;;;;21.15;52.13;101356.63;1734634;82;21061;-74
2021/09/07 10:49:53;;;;;;;12.10;6.10;;;;;;;21.39;52.15;101362.66;1734937;82;21053;-74
2021/09/07 10:52:31;;;;;;;11.28;7.42;;;;;;;21.51;52.07;101360.61;1734824;82;21062;-74
2021/09/07 10:55:09;;;;;;;14.03;7.17;;;;;;;21.66;52.06;101364.70;1734780;82;21416;-74
2021/09/07 10:57:46;;;;;;;14.83;6.92;;;;;;;21.79;51.99;101355.62;1735271;82;21975;-74
2021/09/07 11:00:28;;;;;;;16.75;7.00;;;;;;;21.88;51.91;101360.55;1734625;82;21514;-74
2021/09/07 11:02:56;;;;;;;13.25;6.92;;;;;;;21.90;51.84;101357.14;1734763;82;21581;-74
2021/09/07 11:05:35;;;;;;;26.25;7.08;;;;;;;21.89;51.80;101360.03;1734745;81;20998;-74
2021/09/07 11:08:07;;;;;;;13.33;7.40;;;;;;;21.87;51.73;101355.36;1735122;82;21033;-74
2021/09/07 11:10:37;;;;;;;10.00;7.55;;;;;;;21.86;51.58;101351.80;1735079;82;21340;-74
2021/09/07 11:13:13;;;;;;;12.05;7.75;;;;;;;21.82;51.52;101347.02;1734748;82;21021;-74
2021/09/07 11:15:40;;;;;;;17.73;8.30;;;;;;;21.81;51.46;101350.81;1734971;82;21059;-74
2021/09/07 11:18:08;;;;;;;14.85;8.30;;;;;;;21.84;51.33;101358.52;1734897;82;21514;-74
2021/09/07 11:20:44;;;;;;;13.20;9.20;;;;;;;21.89;51.28;101354.59;1735109;82;21018;-74
2021/09/07 11:23:26;;;;;;;12.73;8.18;;;;;;;22.00;51.21;101355.27;1734230;82;21503;-74